createdAt,value
2023-03-20T00:02:03.199Z,98245.28
2023-03-20T00:04:31.972Z,98246.13
2023-03-20T00:07:00.567Z,98252.53
2023-03-20T00:09:31.525Z,98251.69
2023-03-20T00:12:00.325Z,98242.59
2023-03-20T00:14:29.357Z,98250.66
2023-03-20T00:16:57.852Z,98254.38
2023-03-20T00:19:31.087Z,98250.88
2023-03-20T00:21:59.788Z,98256.25
2023-03-20T00:24:29.922Z,98251.69
2023-03-20T00:26:58.594Z,98250.88
2023-03-20T00:29:28.153Z,98252.53
2023-03-20T00:31:57.011Z,98248.19
2023-03-20T00:34:27.206Z,98243.81
2023-03-20T00:36:56.460Z,98244.63
2023-03-20T00:39:25.163Z,98236.56
2023-03-20T00:41:56.185Z,98235.72
2023-03-20T00:44:26.374Z,98240.13
2023-03-20T00:46:56.878Z,98239.25
2023-03-20T00:49:28.063Z,98244.63
2023-03-20T00:51:56.676Z,98240.13
2023-03-20T00:54:25.236Z,98236.56
2023-03-20T00:56:58.000Z,98224.16
2023-03-20T00:59:28.210Z,98233.03
2023-03-20T01:01:58.791Z,98229.53
2023-03-20T01:04:35.545Z,98227.66
2023-03-20T01:07:04.335Z,98220.63
2023-03-20T01:09:32.892Z,98215.25
2023-03-20T01:12:03.053Z,98220.63
2023-03-20T01:14:31.661Z,98226.00
2023-03-20T01:17:00.514Z,98226.00
2023-03-20T01:19:29.080Z,98218.94
2023-03-20T01:21:57.826Z,98224.31
2023-03-20T01:24:26.457Z,98216.25
2023-03-20T01:26:55.052Z,98214.44
2023-03-20T01:29:27.249Z,98218.94
2023-03-20T01:31:56.042Z,98226.00
2023-03-20T01:34:24.822Z,98230.56
2023-03-20T01:36:54.734Z,98222.50
2023-03-20T01:39:24.509Z,98220.81
2023-03-20T01:41:53.530Z,98229.69
2023-03-20T01:44:24.687Z,98225.34
2023-03-20T01:46:53.867Z,98224.31
2023-03-20T01:50:27.375Z,98231.56
2023-03-20T01:53:07.764Z,98227.88
2023-03-20T01:55:37.281Z,98232.22
2023-03-20T01:58:08.622Z,98236.94
2023-03-20T02:00:38.836Z,98235.94
2023-03-20T02:03:09.049Z,98235.06
2023-03-20T02:05:38.280Z,98233.41
2023-03-20T02:08:29.154Z,98234.25
2023-03-20T02:10:58.254Z,98245.81
2023-03-20T02:13:28.008Z,98242.13
2023-03-20T02:16:05.914Z,98247.50
2023-03-20T02:18:35.013Z,98247.50
2023-03-20T02:21:42.957Z,98246.50
2023-03-20T02:25:15.610Z,98239.44
2023-03-20T02:27:52.960Z,98242.13
2023-03-20T02:30:49.715Z,98243.34
2023-03-20T02:33:57.176Z,98238.78
2023-03-20T02:37:34.143Z,98241.47
2023-03-20T02:40:13.914Z,98238.78
2023-03-20T02:42:46.140Z,98237.13
2023-03-20T02:45:18.515Z,98237.13
2023-03-20T02:47:51.302Z,98228.25
2023-03-20T02:50:22.968Z,98237.97
2023-03-20T02:52:59.759Z,98236.09
2023-03-20T02:55:34.281Z,98233.41
2023-03-20T02:58:07.403Z,98237.13
2023-03-20T03:00:37.185Z,98229.06
2023-03-20T03:03:11.074Z,98230.06
2023-03-20T03:05:42.826Z,98217.47
2023-03-20T03:08:13.732Z,98225.53
2023-03-20T03:10:45.353Z,98225.53
2023-03-20T03:13:16.688Z,98222.00
2023-03-20T03:15:46.646Z,98224.69
2023-03-20T03:18:19.307Z,98225.53
2023-03-20T03:20:48.595Z,98230.06
2023-03-20T03:23:24.508Z,98229.22
2023-03-20T03:25:54.515Z,98218.47
2023-03-20T03:28:29.139Z,98222.19
2023-03-20T03:30:57.880Z,98226.53
2023-03-20T03:33:28.869Z,98232.75
2023-03-20T03:36:09.408Z,98224.69
2023-03-20T03:38:44.640Z,98220.34
2023-03-20T03:41:23.954Z,98214.13
2023-03-20T03:43:57.928Z,98216.81
2023-03-20T03:46:30.761Z,98223.84
2023-03-20T03:48:59.634Z,98228.41
2023-03-20T03:51:31.031Z,98228.41
2023-03-20T03:54:01.953Z,98225.72
2023-03-20T03:56:32.896Z,98227.56
2023-03-20T03:59:04.010Z,98216.81
2023-03-20T04:01:35.474Z,98224.88
2023-03-20T04:04:07.343Z,98228.41
2023-03-20T04:06:36.025Z,98231.09
2023-03-20T04:09:04.780Z,98224.06
2023-03-20T04:11:35.861Z,98229.44
2023-03-20T04:14:04.536Z,98224.88
2023-03-20T04:16:33.375Z,98227.56
2023-03-20T04:19:01.960Z,98229.44
2023-03-20T04:21:30.682Z,98217.81
2023-03-20T04:23:59.334Z,98223.19
2023-03-20T04:26:28.052Z,98229.44
2023-03-20T04:28:58.087Z,98230.25
2023-03-20T04:31:26.914Z,98226.75
2023-03-20T04:33:55.521Z,98231.25
2023-03-20T04:36:24.227Z,98230.25
2023-03-20T04:38:55.120Z,98233.13
2023-03-20T04:41:24.980Z,98235.81
2023-03-20T04:43:53.673Z,98234.16
2023-03-20T04:46:23.644Z,98231.25
2023-03-20T04:48:52.234Z,98234.16
2023-03-20T04:51:20.960Z,98241.19
2023-03-20T04:53:49.488Z,98236.63
2023-03-20T04:56:18.213Z,98241.19
2023-03-20T04:58:46.989Z,98239.50
2023-03-20T05:01:15.632Z,98238.69
2023-03-20T05:03:46.122Z,98239.50
2023-03-20T05:06:14.820Z,98246.75
2023-03-20T05:08:43.363Z,98244.06
2023-03-20T05:11:12.059Z,98250.28
2023-03-20T05:13:40.967Z,98253.78
2023-03-20T05:16:10.312Z,98255.66
2023-03-20T05:18:38.919Z,98253.94
2023-03-20T05:21:09.654Z,98250.28
2023-03-20T05:23:38.318Z,98253.78
2023-03-20T05:26:07.717Z,98258.34
2023-03-20T05:28:36.551Z,98251.94
2023-03-20T05:31:05.624Z,98252.97
2023-03-20T05:33:36.804Z,98244.91
2023-03-20T05:36:09.487Z,98256.47
2023-03-20T05:38:38.043Z,98264.38
2023-03-20T05:41:07.388Z,98257.31
2023-03-20T05:43:35.915Z,98264.38
2023-03-20T05:46:04.699Z,98257.31
2023-03-20T05:48:33.427Z,98262.69
2023-03-20T05:51:02.171Z,98256.47
2023-03-20T05:53:32.158Z,98256.31
2023-03-20T05:56:00.933Z,98260.66
2023-03-20T05:58:29.654Z,98256.94
2023-03-20T06:00:59.029Z,98260.28
2023-03-20T06:03:27.868Z,98260.97
2023-03-20T06:05:56.438Z,98255.59
2023-03-20T06:08:25.179Z,98260.44
2023-03-20T06:10:55.188Z,98255.88
2023-03-20T06:13:23.903Z,98268.66
2023-03-20T06:15:52.638Z,98262.44
2023-03-20T06:18:21.394Z,98271.72
2023-03-20T06:20:54.022Z,98276.41
2023-03-20T06:23:23.229Z,98277.09
2023-03-20T06:25:52.042Z,98285.97
2023-03-20T06:28:22.047Z,98284.63
2023-03-20T06:30:53.410Z,98280.06
2023-03-20T06:33:22.170Z,98291.81
2023-03-20T06:35:51.245Z,98288.31
2023-03-20T06:38:19.865Z,98288.13
2023-03-20T06:40:48.533Z,98284.41
2023-03-20T06:43:17.290Z,98297.69
2023-03-20T06:45:48.194Z,98299.34
2023-03-20T06:48:21.952Z,98303.38
2023-03-20T06:50:50.687Z,98301.22
2023-03-20T06:53:19.340Z,98302.41
2023-03-20T06:55:48.990Z,98310.63
2023-03-20T06:58:17.572Z,98311.66
2023-03-20T07:00:47.779Z,98316.22
2023-03-20T07:03:16.769Z,98310.63
2023-03-20T07:05:45.980Z,98308.69
2023-03-20T07:08:15.276Z,98310.00
2023-03-20T07:10:43.942Z,98319.06
2023-03-20T07:13:12.734Z,98317.41
2023-03-20T07:15:53.884Z,98322.78
2023-03-20T07:18:31.714Z,98322.78
2023-03-20T07:21:01.887Z,98330.00
2023-03-20T07:23:30.836Z,98324.44
2023-03-20T07:25:59.694Z,98322.78
2023-03-20T07:28:28.391Z,98327.13
2023-03-20T07:30:57.056Z,98331.84
2023-03-20T07:33:25.812Z,98330.38
2023-03-20T07:35:56.183Z,98329.34
2023-03-20T07:38:24.916Z,98327.69
2023-03-20T07:40:55.954Z,98328.53
2023-03-20T07:43:24.628Z,98332.50
2023-03-20T07:45:53.247Z,98334.19
2023-03-20T07:48:21.997Z,98344.28
2023-03-20T07:50:50.834Z,98336.38
2023-03-20T07:53:21.020Z,98340.94
2023-03-20T07:55:49.726Z,98334.72
2023-03-20T07:58:18.376Z,98336.59
2023-03-20T08:00:47.192Z,98338.06
2023-03-20T08:03:16.718Z,98341.59
2023-03-20T08:05:47.387Z,98343.25
2023-03-20T08:08:16.641Z,98336.88
2023-03-20T08:10:46.760Z,98342.25
2023-03-20T08:13:15.473Z,98343.09
2023-03-20T08:15:44.238Z,98338.56
2023-03-20T08:18:12.953Z,98336.53
2023-03-20T08:20:41.821Z,98336.88
2023-03-20T08:23:10.492Z,98341.41
2023-03-20T08:25:39.416Z,98331.50
2023-03-20T08:28:09.592Z,98338.56
2023-03-20T08:30:38.168Z,98337.22
2023-03-20T08:33:06.877Z,98337.06
2023-03-20T08:35:35.616Z,98339.75
2023-03-20T08:38:04.328Z,98337.06
2023-03-20T08:40:33.136Z,98337.22
2023-03-20T08:43:01.808Z,98343.09
2023-03-20T08:45:31.929Z,98339.56
2023-03-20T08:48:00.599Z,98338.56
2023-03-20T08:50:30.025Z,98341.41
2023-03-20T08:52:58.605Z,98339.56
2023-03-20T08:55:27.261Z,98331.50
2023-03-20T08:57:57.433Z,98331.50
2023-03-20T09:00:26.219Z,98340.41
2023-03-20T09:02:56.264Z,98337.72
2023-03-20T09:05:25.293Z,98343.09
2023-03-20T09:07:53.905Z,98348.47
2023-03-20T09:10:22.863Z,98343.94
2023-03-20T09:12:51.562Z,98354.69
2023-03-20T09:15:20.499Z,98343.94
2023-03-20T09:17:49.231Z,98346.63
2023-03-20T09:20:19.649Z,98350.97
2023-03-20T09:22:48.399Z,98344.09
2023-03-20T09:25:17.117Z,98349.31
2023-03-20T09:27:46.680Z,98347.44
2023-03-20T09:30:16.082Z,98343.25
2023-03-20T09:32:44.882Z,98345.59
2023-03-20T09:35:13.525Z,98345.59
2023-03-20T09:37:43.517Z,98342.59
2023-03-20T09:40:22.122Z,98342.25
2023-03-20T09:42:54.519Z,98341.25
2023-03-20T09:45:28.838Z,98343.94
2023-03-20T09:48:02.285Z,98354.69
2023-03-20T09:50:35.515Z,98353.03
2023-03-20T09:53:07.735Z,98354.69
2023-03-20T09:55:38.012Z,98364.59
2023-03-20T09:58:16.543Z,98344.94
2023-03-20T10:00:47.107Z,98349.47
2023-03-20T10:03:21.414Z,98349.47
2023-03-20T10:05:55.597Z,98348.63
2023-03-20T10:08:29.229Z,98345.94
2023-03-20T10:11:05.818Z,98348.63
2023-03-20T10:13:59.093Z,98344.94
2023-03-20T10:16:38.949Z,98349.66
2023-03-20T10:19:12.307Z,98346.97
2023-03-20T10:21:44.495Z,98339.75
2023-03-20T10:24:19.736Z,98339.91
2023-03-20T10:26:49.834Z,98337.06
2023-03-20T10:29:25.614Z,98351.31
2023-03-20T10:31:58.929Z,98344.28
2023-03-20T10:34:42.841Z,98345.13
2023-03-20T10:37:22.283Z,98339.75
2023-03-20T10:39:58.816Z,98341.41
2023-03-20T10:42:30.249Z,98336.88
2023-03-20T10:45:00.775Z,98341.41
2023-03-20T10:47:31.601Z,98336.03
2023-03-20T10:50:02.499Z,98327.13
2023-03-20T10:52:33.192Z,98331.50
2023-03-20T10:55:06.829Z,98331.50
2023-03-20T10:57:38.476Z,98318.91
2023-03-20T11:00:14.744Z,98326.13
2023-03-20T11:02:43.463Z,98318.91
2023-03-20T11:05:22.368Z,98324.94
2023-03-20T11:07:52.006Z,98323.09
2023-03-20T11:10:22.211Z,98323.25
2023-03-20T11:12:52.491Z,98314.19
2023-03-20T11:15:24.788Z,98312.50
2023-03-20T11:17:55.702Z,98311.66
2023-03-20T11:20:25.547Z,98313.31
2023-03-20T11:22:59.846Z,98312.50
2023-03-20T11:25:34.098Z,98318.69
2023-03-20T11:28:21.865Z,98306.28
2023-03-20T11:31:04.041Z,98307.13
2023-03-20T11:33:34.932Z,98297.19
2023-03-20T11:36:03.792Z,98294.19
2023-03-20T11:38:32.996Z,98298.53
2023-03-20T11:41:02.932Z,98292.50
2023-03-20T11:43:31.542Z,98294.34
2023-03-20T11:46:01.486Z,98288.97
2023-03-20T11:48:39.164Z,98292.69
2023-03-20T11:51:09.841Z,98287.94
2023-03-20T11:53:40.539Z,98286.94
2023-03-20T11:56:13.076Z,98282.56
2023-03-20T11:58:52.193Z,98284.41
2023-03-20T12:01:20.794Z,98286.44
2023-03-20T12:03:55.643Z,98288.97
2023-03-20T12:06:27.294Z,98280.06
2023-03-20T12:08:58.540Z,98290.81
2023-03-20T12:11:44.557Z,98284.63
2023-03-20T12:14:23.331Z,98278.38
2023-03-20T12:16:54.904Z,98281.94
2023-03-20T12:19:26.969Z,98275.69
2023-03-20T12:22:02.139Z,98275.69
2023-03-20T12:24:34.922Z,98281.06
2023-03-20T12:27:17.300Z,98274.88
2023-03-20T12:29:49.858Z,98276.72
2023-03-20T12:32:22.432Z,98274.88
2023-03-20T12:34:53.122Z,98276.88
2023-03-20T12:37:21.916Z,98272.38
2023-03-20T12:39:52.229Z,98274.19
2023-03-20T12:42:31.861Z,98275.06
2023-03-20T12:45:04.334Z,98284.78
2023-03-20T12:47:56.211Z,98271.50
2023-03-20T12:50:31.599Z,98283.13
2023-03-20T12:53:31.115Z,98276.88
2023-03-20T12:56:07.783Z,98273.38
2023-03-20T12:58:42.558Z,98277.75
2023-03-20T13:01:15.121Z,98274.19
2023-03-20T13:04:23.637Z,98277.75
2023-03-20T13:06:54.097Z,98267.00
2023-03-20T13:09:57.354Z,98279.56
2023-03-20T13:12:36.309Z,98269.69
2023-03-20T13:15:17.420Z,98276.72
2023-03-20T13:17:48.550Z,98273.19
2023-03-20T13:20:24.812Z,98265.97
2023-03-20T13:23:02.078Z,98269.69
2023-03-20T13:25:56.578Z,98259.75
2023-03-20T13:28:31.037Z,98258.06
2023-03-20T13:31:05.800Z,98258.56
2023-03-20T13:33:45.572Z,98257.53
2023-03-20T13:36:20.539Z,98257.19
2023-03-20T13:38:51.169Z,98258.38
2023-03-20T13:41:20.023Z,98252.16
2023-03-20T13:43:50.736Z,98253.19
2023-03-20T13:46:24.034Z,98253.00
2023-03-20T13:48:52.841Z,98254.47
2023-03-20T13:51:27.872Z,98253.84
2023-03-20T13:54:14.812Z,98257.19
2023-03-20T13:56:50.634Z,98257.19
2023-03-20T13:59:51.812Z,98251.63
2023-03-20T14:02:32.633Z,98254.47
2023-03-20T14:05:05.952Z,98254.69
2023-03-20T14:07:36.127Z,98252.63
2023-03-20T14:10:40.960Z,98251.44
2023-03-20T14:13:15.522Z,98262.19
2023-03-20T14:15:52.481Z,98259.50
2023-03-20T14:18:24.365Z,98249.78
2023-03-20T14:20:56.851Z,98254.13
2023-03-20T14:23:36.841Z,98256.81
2023-03-20T14:26:11.346Z,98264.03
2023-03-20T14:28:55.608Z,98265.91
2023-03-20T14:31:28.392Z,98251.78
2023-03-20T14:34:11.126Z,98259.69
2023-03-20T14:37:02.142Z,98258.88
2023-03-20T14:39:44.806Z,98257.38
2023-03-20T14:42:35.183Z,98258.66
2023-03-20T14:45:33.852Z,98256.81
2023-03-20T14:48:08.405Z,98263.22
2023-03-20T14:50:42.660Z,98256.81
2023-03-20T14:53:18.569Z,98258.00
2023-03-20T14:55:58.536Z,98260.88
2023-03-20T14:58:53.953Z,98257.84
2023-03-20T15:01:30.063Z,98252.47
2023-03-20T15:04:01.427Z,98241.03
2023-03-20T15:06:32.214Z,98240.22
2023-03-20T15:09:02.858Z,98237.53
2023-03-20T15:11:32.231Z,98234.00
2023-03-20T15:14:01.571Z,98228.63
2023-03-20T15:16:31.464Z,98241.03
2023-03-20T15:19:00.631Z,98234.19
2023-03-20T15:21:34.726Z,98233.63
2023-03-20T15:24:03.918Z,98223.34
2023-03-20T15:26:35.166Z,98233.28
2023-03-20T15:29:05.960Z,98229.91
2023-03-20T15:31:36.543Z,98231.63
2023-03-20T15:34:08.739Z,98237.72
2023-03-20T15:36:40.650Z,98230.13
2023-03-20T15:39:15.632Z,98230.13
2023-03-20T15:41:47.753Z,98240.69
2023-03-20T15:44:23.047Z,98237.16
2023-03-20T15:47:01.197Z,98235.50
2023-03-20T15:49:32.166Z,98225.41
2023-03-20T15:52:04.810Z,98230.94
2023-03-20T15:54:34.536Z,98226.78
2023-03-20T15:57:05.533Z,98230.28
2023-03-20T15:59:34.996Z,98241.88
2023-03-20T16:02:04.564Z,98230.94
2023-03-20T16:04:33.804Z,98227.44
2023-03-20T16:07:04.309Z,98233.81
2023-03-20T16:09:45.496Z,98227.22
2023-03-20T16:12:17.619Z,98226.41
2023-03-20T16:14:48.203Z,98227.44
2023-03-20T16:17:17.899Z,98236.88
2023-03-20T16:19:47.509Z,98235.66
2023-03-20T16:22:28.417Z,98234.47
2023-03-20T16:24:59.008Z,98238.19
2023-03-20T16:27:30.268Z,98232.81
2023-03-20T16:29:59.546Z,98240.22
2023-03-20T16:32:39.944Z,98239.84
2023-03-20T16:35:17.458Z,98240.22
2023-03-20T16:37:50.539Z,98242.06
2023-03-20T16:40:25.229Z,98239.38
2023-03-20T16:42:57.419Z,98246.06
2023-03-20T16:45:30.448Z,98245.22
2023-03-20T16:48:28.752Z,98254.31
2023-03-20T16:51:08.432Z,98244.56
2023-03-20T16:53:43.761Z,98251.63
2023-03-20T16:56:23.530Z,98251.63
2023-03-20T16:58:56.046Z,98250.13
2023-03-20T17:01:30.077Z,98260.53
2023-03-20T17:04:00.543Z,98249.09
2023-03-20T17:06:39.886Z,98257.19
2023-03-20T17:09:25.519Z,98252.81
2023-03-20T17:12:02.868Z,98260.69
2023-03-20T17:14:32.048Z,98259.03
2023-03-20T17:17:01.839Z,98251.78
2023-03-20T17:19:31.879Z,98256.19
2023-03-20T17:22:03.918Z,98258.00
2023-03-20T17:24:34.259Z,98262.38
2023-03-20T17:27:03.575Z,98252.63
2023-03-20T17:29:32.853Z,98252.63
2023-03-20T17:32:02.360Z,98251.44
2023-03-20T17:34:32.102Z,98260.53
2023-03-20T17:37:03.450Z,98255.31
2023-03-20T17:39:33.889Z,98255.31
2023-03-20T17:42:03.711Z,98257.00
2023-03-20T17:44:32.774Z,98255.31
2023-03-20T17:47:02.683Z,98254.47
2023-03-20T17:49:32.364Z,98257.38
2023-03-20T17:52:01.501Z,98267.09
2023-03-20T17:54:30.596Z,98272.94
2023-03-20T17:57:01.234Z,98270.44
2023-03-20T17:59:31.394Z,98272.94
2023-03-20T18:02:02.230Z,98270.63
2023-03-20T18:04:31.722Z,98271.28
2023-03-20T18:07:01.127Z,98269.63
2023-03-20T18:09:31.117Z,98277.47
2023-03-20T18:12:01.958Z,98289.72
2023-03-20T18:14:31.197Z,98279.63
2023-03-20T18:17:00.396Z,98295.13
2023-03-20T18:19:30.582Z,98282.34
2023-03-20T18:21:59.998Z,98279.63
2023-03-20T18:24:29.582Z,98277.78
2023-03-20T18:26:59.230Z,98286.03
2023-03-20T18:29:30.215Z,98279.19
2023-03-20T18:31:59.541Z,98277.97
2023-03-20T18:34:28.787Z,98278.81
2023-03-20T18:36:57.724Z,98273.81
2023-03-20T18:39:27.363Z,98278.97
2023-03-20T18:41:55.954Z,98283.34
2023-03-20T18:44:24.520Z,98280.66
2023-03-20T18:46:54.757Z,98287.72
2023-03-20T18:49:23.464Z,98290.56
2023-03-20T18:51:53.381Z,98285.69
2023-03-20T18:54:22.035Z,98277.63
2023-03-20T18:56:52.025Z,98285.69
2023-03-20T18:59:20.759Z,98280.31
2023-03-20T19:01:49.591Z,98284.19
2023-03-20T19:04:23.386Z,98280.66
2023-03-20T19:06:52.924Z,98280.66
2023-03-20T19:09:21.868Z,98284.00
2023-03-20T19:11:50.780Z,98278.97
2023-03-20T19:14:19.405Z,98271.94
2023-03-20T19:16:48.010Z,98276.50
2023-03-20T19:19:18.298Z,98275.63
2023-03-20T19:21:47.140Z,98271.28
2023-03-20T19:24:15.729Z,98276.66
2023-03-20T19:26:44.626Z,98277.47
2023-03-20T19:29:14.138Z,98275.81
2023-03-20T19:31:43.518Z,98269.63
2023-03-20T19:34:38.937Z,98270.63
2023-03-20T19:37:02.220Z,98270.44
2023-03-20T19:39:31.404Z,98272.31
2023-03-20T19:42:15.376Z,98273.31
2023-03-20T19:44:49.227Z,98268.75
2023-03-20T19:47:17.988Z,98273.31
2023-03-20T19:49:46.689Z,98270.63
2023-03-20T19:52:18.535Z,98267.09
2023-03-20T19:55:01.595Z,98274.13
2023-03-20T19:57:31.319Z,98275.16
2023-03-20T20:00:43.828Z,98276.19
2023-03-20T20:02:48.988Z,98271.94
2023-03-20T20:05:23.270Z,98265.91
2023-03-20T20:08:22.251Z,98273.97
2023-03-20T20:10:44.485Z,98273.31
2023-03-20T20:13:19.092Z,98281.38
2023-03-20T20:15:48.150Z,98282.03
2023-03-20T20:18:17.221Z,98281.38
2023-03-20T20:21:34.609Z,98277.84
2023-03-20T20:23:38.363Z,98285.09
2023-03-20T20:26:09.981Z,98286.81
2023-03-20T20:28:38.759Z,98292.13
2023-03-20T20:31:07.359Z,98287.56
2023-03-20T20:33:36.816Z,98299.19
2023-03-20T20:36:57.603Z,98301.03
2023-03-20T20:39:02.102Z,98295.47
2023-03-20T20:41:31.207Z,98297.69
2023-03-20T20:44:17.189Z,98287.78
2023-03-20T20:46:46.337Z,98293.97
2023-03-20T20:49:19.444Z,98290.25
2023-03-20T20:51:48.832Z,98292.13
2023-03-20T20:54:18.863Z,98289.28
2023-03-20T20:56:47.533Z,98292.78
2023-03-20T20:59:16.222Z,98290.25
2023-03-20T21:01:44.879Z,98288.25
2023-03-20T21:04:13.602Z,98289.44
2023-03-20T21:09:32.815Z,98294.44
2023-03-20T21:12:02.838Z,98287.41
2023-03-20T21:14:31.524Z,98284.06
2023-03-20T21:17:01.844Z,98289.28
2023-03-20T21:19:30.994Z,98298.16
2023-03-20T21:21:59.604Z,98284.88
2023-03-20T21:24:32.653Z,98289.44
2023-03-20T21:27:04.397Z,98277.84
2023-03-20T21:29:32.990Z,98282.19
2023-03-20T21:32:01.924Z,98284.06
2023-03-20T21:34:30.707Z,98287.78
2023-03-20T21:37:00.169Z,98277.84
2023-03-20T21:39:30.956Z,98287.78
2023-03-20T21:41:59.495Z,98289.44
2023-03-20T21:48:09.226Z,98284.88
2023-03-20T21:50:52.518Z,98281.38
2023-03-20T21:53:57.661Z,98281.38
2023-03-20T21:56:34.893Z,98284.06
2023-03-20T21:59:27.073Z,98282.41
2023-03-20T22:02:02.479Z,98279.72
2023-03-20T22:16:10.746Z,98273.50
2023-03-20T22:21:57.355Z,98273.66
2023-03-20T22:27:35.221Z,98272.00
2023-03-20T22:30:22.202Z,98271.19
2023-03-20T22:38:59.486Z,98262.91
2023-03-20T22:47:38.234Z,98277.03
2023-03-20T22:50:08.692Z,98277.03
2023-03-20T22:52:48.681Z,98273.50
2023-03-20T22:55:18.420Z,98274.34
2023-03-20T22:58:05.408Z,98278.06
2023-03-20T23:00:35.556Z,98274.34
2023-03-20T23:03:37.540Z,98273.50
2023-03-20T23:05:55.343Z,98267.28
2023-03-20T23:08:24.758Z,98259.22
2023-03-20T23:10:53.387Z,98262.09
2023-03-20T23:13:22.553Z,98266.63
2023-03-20T23:15:51.866Z,98261.91
2023-03-20T23:18:21.666Z,98265.25
2023-03-20T23:20:50.130Z,98266.06
2023-03-20T23:23:18.580Z,98268.75
2023-03-20T23:25:47.248Z,98273.31
2023-03-20T23:28:15.846Z,98267.09
2023-03-20T23:30:51.789Z,98267.94
2023-03-20T23:33:26.536Z,98258.19
2023-03-20T23:36:12.444Z,98255.50
2023-03-20T23:38:44.922Z,98254.47
2023-03-20T23:41:14.342Z,98253.00
2023-03-20T23:43:42.840Z,98256.34
2023-03-20T23:46:11.549Z,98257.38
2023-03-20T23:48:41.404Z,98260.88
2023-03-20T23:51:10.007Z,98252.81
2023-03-20T23:53:38.441Z,98252.00
2023-03-20T23:56:08.795Z,98248.47
2023-03-20T23:58:41.856Z,98252.81
